createdAt,value
2017-12-24T00:02:02.354Z,91.90
2017-12-24T00:04:30.580Z,91.80
2017-12-24T00:06:58.069Z,92.30
2017-12-24T00:09:25.545Z,91.70
2017-12-24T00:11:53.814Z,91.90
2017-12-24T00:14:21.282Z,92.40
2017-12-24T00:16:49.517Z,91.70
2017-12-24T00:19:16.984Z,91.60
2017-12-24T00:21:44.467Z,91.70
2017-12-24T00:24:12.714Z,91.80
2017-12-24T00:26:40.173Z,92.30
2017-12-24T00:29:07.648Z,91.70
2017-12-24T00:31:35.113Z,91.70
2017-12-24T00:34:03.349Z,91.70
2017-12-24T00:36:30.821Z,92.20
2017-12-24T00:38:59.818Z,91.60
2017-12-24T00:41:27.286Z,91.60
2017-12-24T00:43:54.833Z,91.90
2017-12-24T00:46:22.389Z,91.60
2017-12-24T00:48:49.866Z,91.60
2017-12-24T00:51:18.112Z,91.60
2017-12-24T00:53:45.583Z,91.60
2017-12-24T00:56:13.065Z,91.40
2017-12-24T00:58:41.298Z,91.50
2017-12-24T01:01:08.824Z,91.50
2017-12-24T01:03:36.293Z,91.50
2017-12-24T01:06:04.514Z,91.60
2017-12-24T01:08:31.987Z,91.60
2017-12-24T01:11:00.237Z,91.60
2017-12-24T01:13:28.464Z,91.60
2017-12-24T01:15:55.945Z,91.60
2017-12-24T01:18:23.413Z,91.60
2017-12-24T01:20:50.983Z,91.50
2017-12-24T01:23:18.536Z,91.50
2017-12-24T01:25:46.014Z,91.50
2017-12-24T01:28:14.274Z,91.50
2017-12-24T01:30:41.750Z,91.50
2017-12-24T01:33:09.998Z,91.60
2017-12-24T01:35:37.452Z,91.60
2017-12-24T01:38:05.007Z,91.60
2017-12-24T01:40:33.250Z,91.60
2017-12-24T01:43:00.750Z,91.50
2017-12-24T01:45:28.304Z,91.50
2017-12-24T01:47:55.785Z,91.50
2017-12-24T01:50:24.004Z,91.50
2017-12-24T01:52:51.472Z,91.50
2017-12-24T01:55:18.948Z,91.30
2017-12-24T01:57:46.419Z,91.30
2017-12-24T02:00:14.681Z,91.50
2017-12-24T02:02:42.302Z,91.40
2017-12-24T02:05:09.778Z,91.50
2017-12-24T02:07:37.232Z,91.60
2017-12-24T02:10:04.696Z,91.60
2017-12-24T02:12:32.169Z,91.80
2017-12-24T02:14:59.644Z,91.70
2017-12-24T02:17:27.904Z,91.60
2017-12-24T02:19:55.464Z,91.60
2017-12-24T02:22:22.924Z,91.70
2017-12-24T02:24:50.537Z,91.80
2017-12-24T02:27:18.048Z,91.80
2017-12-24T02:29:45.656Z,91.70
2017-12-24T02:32:13.111Z,91.70
2017-12-24T02:34:40.586Z,91.80
2017-12-24T02:37:08.068Z,91.90
2017-12-24T02:39:35.525Z,91.90
2017-12-24T02:42:03.120Z,91.90
2017-12-24T02:44:31.350Z,91.80
2017-12-24T02:46:58.826Z,91.80
2017-12-24T02:49:26.440Z,91.80
2017-12-24T02:51:53.907Z,91.90
2017-12-24T02:54:21.366Z,91.90
2017-12-24T02:56:48.839Z,92.00
2017-12-24T02:59:16.294Z,92.00
2017-12-24T03:01:43.783Z,92.00
2017-12-24T03:04:12.012Z,92.00
2017-12-24T03:06:39.484Z,92.00
2017-12-24T03:09:07.049Z,92.00
2017-12-24T03:11:34.517Z,91.90
2017-12-24T03:14:01.975Z,92.00
2017-12-24T03:16:29.439Z,92.00
2017-12-24T03:18:57.672Z,91.90
2017-12-24T03:21:25.139Z,91.80
2017-12-24T03:23:52.704Z,91.90
2017-12-24T03:26:20.160Z,91.90
2017-12-24T03:28:47.632Z,91.80
2017-12-24T03:31:15.246Z,91.80
2017-12-24T03:33:42.656Z,91.90
2017-12-24T03:36:10.192Z,91.90
2017-12-24T03:38:37.656Z,92.00
2017-12-24T03:41:05.204Z,91.80
2017-12-24T03:43:32.678Z,91.70
2017-12-24T03:46:00.223Z,91.70
2017-12-24T03:48:27.702Z,91.60
2017-12-24T03:50:55.927Z,91.60
2017-12-24T03:53:23.407Z,91.50
2017-12-24T03:55:50.934Z,91.40
2017-12-24T03:58:18.351Z,91.40
2017-12-24T04:00:45.804Z,91.40
2017-12-24T04:03:14.032Z,91.30
2017-12-24T04:05:41.499Z,91.20
2017-12-24T04:08:08.970Z,91.20
2017-12-24T04:10:36.446Z,91.30
2017-12-24T04:13:04.680Z,91.60
2017-12-24T04:15:32.157Z,91.20
2017-12-24T04:17:59.720Z,91.20
2017-12-24T04:20:27.274Z,91.20
2017-12-24T04:22:54.736Z,91.10
2017-12-24T04:25:22.201Z,91.10
2017-12-24T04:27:49.752Z,91.00
2017-12-24T04:30:17.216Z,91.10
2017-12-24T04:32:44.777Z,91.00
2017-12-24T04:35:12.329Z,91.00
2017-12-24T04:37:39.884Z,91.00
2017-12-24T04:40:07.445Z,90.90
2017-12-24T04:42:34.921Z,90.80
2017-12-24T04:45:02.389Z,90.90
2017-12-24T04:47:30.612Z,90.90
2017-12-24T04:49:58.099Z,90.90
2017-12-24T04:52:25.559Z,90.70
2017-12-24T04:54:53.879Z,90.80
2017-12-24T04:57:21.345Z,90.70
2017-12-24T04:59:48.803Z,90.80
2017-12-24T05:02:16.290Z,90.70
2017-12-24T05:04:43.750Z,90.80
2017-12-24T05:07:11.231Z,90.70
2017-12-24T05:09:39.482Z,90.70
2017-12-24T05:12:07.041Z,90.70
2017-12-24T05:14:34.517Z,90.70
2017-12-24T05:17:02.777Z,90.70
2017-12-24T05:19:30.254Z,90.70
2017-12-24T05:21:58.487Z,91.10
2017-12-24T05:24:26.068Z,90.70
2017-12-24T05:26:53.582Z,90.70
2017-12-24T05:29:21.093Z,90.70
2017-12-24T05:31:48.544Z,90.60
2017-12-24T05:34:16.027Z,90.60
2017-12-24T05:36:44.259Z,90.60
2017-12-24T05:39:11.837Z,90.60
2017-12-24T05:41:40.078Z,90.60
2017-12-24T05:44:07.618Z,90.50
2017-12-24T05:46:35.085Z,90.50
2017-12-24T05:49:02.543Z,90.50
2017-12-24T05:51:30.017Z,90.60
2017-12-24T05:53:58.003Z,90.60
2017-12-24T05:56:25.556Z,90.60
2017-12-24T05:58:53.832Z,90.60
2017-12-24T06:01:21.398Z,90.60
2017-12-24T06:03:48.860Z,90.60
2017-12-24T06:06:16.334Z,90.80
2017-12-24T06:08:44.564Z,90.70
2017-12-24T06:11:12.025Z,90.70
2017-12-24T06:13:39.480Z,90.80
2017-12-24T06:16:06.952Z,90.80
2017-12-24T06:18:34.422Z,90.80
2017-12-24T06:21:01.915Z,90.90
2017-12-24T06:23:29.368Z,90.80
2017-12-24T06:25:56.827Z,90.90
2017-12-24T06:28:24.306Z,90.90
2017-12-24T06:30:51.801Z,90.90
2017-12-24T06:33:19.276Z,90.90
2017-12-24T06:35:47.511Z,91.20
2017-12-24T06:38:14.984Z,90.90
2017-12-24T06:40:42.454Z,90.80
2017-12-24T06:43:10.729Z,91.10
2017-12-24T06:45:38.264Z,90.80
2017-12-24T06:48:05.756Z,91.10
2017-12-24T06:50:33.985Z,91.00
2017-12-24T06:53:01.462Z,91.00
2017-12-24T06:55:28.919Z,90.90
2017-12-24T06:57:56.392Z,90.90
2017-12-24T07:00:24.640Z,91.00
2017-12-24T07:02:52.103Z,90.90
2017-12-24T07:05:19.569Z,91.10
2017-12-24T07:07:48.546Z,91.00
2017-12-24T07:10:16.008Z,91.00
2017-12-24T07:12:43.487Z,91.10
2017-12-24T07:15:11.744Z,91.10
2017-12-24T07:17:39.212Z,91.00
2017-12-24T07:20:07.444Z,91.00
2017-12-24T07:22:34.916Z,91.10
2017-12-24T07:25:02.552Z,91.00
2017-12-24T07:27:30.069Z,91.10
2017-12-24T07:29:57.527Z,91.00
2017-12-24T07:32:25.806Z,91.00
2017-12-24T07:34:54.060Z,90.90
2017-12-24T07:37:22.344Z,91.10
2017-12-24T07:39:49.893Z,91.10
2017-12-24T07:42:17.459Z,91.20
2017-12-24T07:44:44.922Z,91.00
2017-12-24T07:47:13.149Z,91.00
2017-12-24T07:49:40.663Z,90.90
2017-12-24T07:52:08.887Z,91.10
2017-12-24T07:54:36.346Z,90.90
2017-12-24T07:57:03.817Z,90.90
2017-12-24T07:59:31.343Z,90.90
2017-12-24T08:01:58.803Z,91.00
2017-12-24T08:04:27.846Z,91.10
2017-12-24T08:06:55.317Z,91.10
2017-12-24T08:09:23.568Z,91.00
2017-12-24T08:11:51.125Z,91.00
2017-12-24T08:14:18.713Z,91.10
2017-12-24T08:16:46.946Z,91.10
2017-12-24T08:19:14.455Z,91.10
2017-12-24T08:21:41.920Z,91.00
2017-12-24T08:24:09.411Z,90.90
2017-12-24T08:26:36.893Z,91.00
2017-12-24T08:29:04.372Z,91.10
2017-12-24T08:31:32.608Z,91.00
2017-12-24T08:34:00.081Z,91.00
2017-12-24T08:36:27.643Z,91.10
2017-12-24T08:38:55.214Z,91.10
2017-12-24T08:41:23.435Z,91.10
2017-12-24T08:43:50.905Z,91.00
2017-12-24T08:46:18.386Z,91.00
2017-12-24T08:48:45.944Z,91.00
2017-12-24T08:51:13.408Z,90.90
2017-12-24T08:53:42.392Z,90.90
2017-12-24T08:56:09.959Z,90.90
2017-12-24T08:58:37.568Z,90.90
2017-12-24T09:01:05.038Z,91.00
2017-12-24T09:03:32.525Z,91.00
2017-12-24T09:06:00.089Z,91.00
2017-12-24T09:08:27.640Z,90.90
2017-12-24T09:10:55.199Z,90.70
2017-12-24T09:13:22.756Z,90.80
2017-12-24T09:15:50.243Z,90.80
2017-12-24T09:18:18.479Z,90.80
2017-12-24T09:20:46.057Z,90.70
2017-12-24T09:23:15.040Z,90.90
2017-12-24T09:25:42.532Z,90.80
2017-12-24T09:28:10.764Z,90.90
2017-12-24T09:30:38.236Z,90.90
2017-12-24T09:33:06.483Z,90.70
2017-12-24T09:35:33.949Z,90.80
2017-12-24T09:38:01.420Z,90.70
2017-12-24T09:40:28.876Z,90.80
2017-12-24T09:42:56.445Z,90.80
2017-12-24T09:45:23.996Z,90.80
2017-12-24T09:47:51.489Z,90.80
2017-12-24T09:50:18.955Z,90.70
2017-12-24T09:52:46.420Z,90.70
2017-12-24T09:55:13.883Z,90.70
2017-12-24T09:57:41.383Z,90.80
2017-12-24T10:00:08.942Z,90.80
2017-12-24T10:02:36.415Z,90.80
2017-12-24T10:05:04.645Z,90.60
2017-12-24T10:07:32.130Z,90.60
2017-12-24T10:09:59.600Z,90.70
2017-12-24T10:12:27.085Z,91.10
2017-12-24T10:14:54.659Z,90.70
2017-12-24T10:17:22.161Z,90.90
2017-12-24T10:19:49.674Z,90.90
2017-12-24T10:22:17.171Z,90.80
2017-12-24T10:24:44.647Z,90.80
2017-12-24T10:27:12.880Z,91.00
2017-12-24T10:29:40.348Z,91.00
2017-12-24T10:32:07.812Z,90.80
2017-12-24T10:34:35.376Z,90.90
2017-12-24T10:37:02.998Z,90.90
2017-12-24T10:39:30.496Z,90.90
2017-12-24T10:41:57.953Z,90.80
2017-12-24T10:44:25.428Z,90.90
2017-12-24T10:46:53.684Z,90.90
2017-12-24T10:49:21.240Z,90.90
2017-12-24T10:51:48.720Z,90.80
2017-12-24T10:54:16.980Z,90.80
2017-12-24T10:56:44.444Z,90.80
2017-12-24T10:59:12.685Z,90.70
2017-12-24T11:01:40.223Z,90.70
2017-12-24T11:04:07.677Z,90.80
2017-12-24T11:06:35.155Z,90.90
2017-12-24T11:09:02.636Z,90.90
2017-12-24T11:11:30.111Z,90.80
2017-12-24T11:13:57.652Z,90.90
2017-12-24T11:16:25.116Z,90.80
2017-12-24T11:18:52.677Z,90.70
2017-12-24T11:21:20.223Z,91.10
2017-12-24T11:23:47.684Z,90.70
2017-12-24T11:26:15.161Z,90.60
2017-12-24T11:28:43.402Z,90.80
2017-12-24T11:31:10.868Z,90.70
2017-12-24T11:33:38.342Z,91.30
2017-12-24T11:36:06.594Z,90.80
2017-12-24T11:38:34.152Z,90.80
2017-12-24T11:41:01.678Z,90.70
2017-12-24T11:43:29.140Z,90.60
2017-12-24T11:45:56.599Z,90.70
2017-12-24T11:48:24.078Z,90.70
2017-12-24T11:50:51.562Z,90.40
2017-12-24T11:53:19.108Z,90.30
2017-12-24T11:55:46.564Z,90.10
2017-12-24T11:58:14.138Z,90.30
2017-12-24T12:00:41.684Z,90.30
2017-12-24T12:03:09.234Z,90.30
2017-12-24T12:05:36.800Z,90.20
2017-12-24T12:08:04.275Z,90.30
2017-12-24T12:10:32.504Z,90.20
2017-12-24T12:12:59.988Z,90.20
2017-12-24T12:15:27.573Z,90.00
2017-12-24T12:17:55.804Z,90.00
2017-12-24T12:20:23.375Z,90.00
2017-12-24T12:22:50.847Z,89.80
2017-12-24T12:25:18.387Z,89.90
2017-12-24T12:27:45.965Z,89.90
2017-12-24T12:30:13.452Z,89.90
2017-12-24T12:32:40.978Z,90.20
2017-12-24T12:35:08.486Z,89.20
2017-12-24T12:37:35.984Z,88.90
2017-12-24T12:40:03.545Z,89.30
2017-12-24T12:42:31.097Z,89.00
2017-12-24T12:44:58.575Z,88.90
2017-12-24T12:47:26.083Z,88.90
2017-12-24T12:49:53.586Z,89.00
2017-12-24T12:52:21.037Z,89.00
2017-12-24T12:54:48.500Z,88.70
2017-12-24T12:57:16.770Z,89.50
2017-12-24T12:59:44.232Z,88.90
2017-12-24T13:02:11.777Z,88.70
2017-12-24T13:04:39.246Z,89.20
2017-12-24T13:07:06.789Z,88.70
2017-12-24T13:09:34.244Z,88.00
2017-12-24T13:12:01.805Z,88.30
2017-12-24T13:14:29.386Z,88.40
2017-12-24T13:16:57.636Z,88.30
2017-12-24T13:19:25.212Z,88.10
2017-12-24T13:21:52.822Z,88.00
2017-12-24T13:24:20.312Z,88.00
2017-12-24T13:26:47.776Z,88.10
2017-12-24T13:29:15.243Z,88.00
2017-12-24T13:31:42.797Z,88.00
2017-12-24T13:34:10.321Z,87.90
2017-12-24T13:36:37.804Z,87.50
2017-12-24T13:39:05.373Z,87.60
2017-12-24T13:41:32.920Z,87.90
2017-12-24T13:44:00.392Z,87.70
2017-12-24T13:46:27.872Z,87.80
2017-12-24T13:48:56.100Z,87.70
2017-12-24T13:51:23.669Z,87.50
2017-12-24T13:53:51.140Z,87.50
2017-12-24T13:56:19.369Z,87.40
2017-12-24T13:58:46.860Z,87.40
2017-12-24T14:01:14.416Z,87.40
2017-12-24T14:03:41.892Z,87.40
2017-12-24T14:06:10.129Z,87.40
2017-12-24T14:08:37.577Z,87.30
2017-12-24T14:11:05.054Z,87.40
2017-12-24T14:13:32.516Z,87.20
2017-12-24T14:16:00.014Z,87.40
2017-12-24T14:18:27.494Z,87.40
2017-12-24T14:20:54.956Z,87.40
2017-12-24T14:23:22.509Z,87.10
2017-12-24T14:25:49.993Z,87.60
2017-12-24T14:28:17.439Z,87.40
2017-12-24T14:30:44.904Z,87.30
2017-12-24T14:33:12.376Z,87.20
2017-12-24T14:35:39.852Z,87.20
2017-12-24T14:38:08.120Z,87.10
2017-12-24T14:40:35.662Z,86.90
2017-12-24T14:43:03.290Z,86.90
2017-12-24T14:45:30.796Z,87.10
2017-12-24T14:47:58.344Z,87.50
2017-12-24T14:50:25.799Z,87.20
2017-12-24T14:52:54.081Z,87.00
2017-12-24T14:55:21.540Z,87.00
2017-12-24T14:57:49.095Z,86.80
2017-12-24T15:00:16.654Z,86.80
2017-12-24T15:02:44.117Z,87.00
2017-12-24T15:05:11.582Z,86.60
2017-12-24T15:07:39.836Z,86.70
2017-12-24T15:10:07.409Z,86.70
2017-12-24T15:12:34.877Z,85.80
2017-12-24T15:15:03.103Z,85.60
2017-12-24T15:17:30.587Z,85.50
2017-12-24T15:19:58.051Z,85.40
2017-12-24T15:22:25.517Z,85.50
2017-12-24T15:24:53.736Z,85.10
2017-12-24T15:27:21.235Z,85.10
2017-12-24T15:29:48.700Z,85.00
2017-12-24T15:32:16.972Z,84.80
2017-12-24T15:34:44.480Z,84.80
2017-12-24T15:37:11.933Z,84.40
2017-12-24T15:39:39.392Z,84.20
2017-12-24T15:42:06.897Z,84.50
2017-12-24T15:44:34.461Z,84.40
2017-12-24T15:47:02.007Z,83.90
2017-12-24T15:49:29.456Z,84.20
2017-12-24T15:51:56.916Z,84.40
2017-12-24T15:54:24.378Z,84.40
2017-12-24T15:56:51.831Z,84.70
2017-12-24T15:59:19.297Z,84.40
2017-12-24T16:01:47.532Z,84.70
2017-12-24T16:04:14.992Z,84.70
2017-12-24T16:06:42.457Z,84.40
2017-12-24T16:09:09.998Z,84.50
2017-12-24T16:11:37.460Z,84.70
2017-12-24T16:14:04.965Z,84.80
2017-12-24T16:16:32.420Z,84.60
2017-12-24T16:18:59.969Z,84.60
2017-12-24T16:21:27.428Z,84.70
2017-12-24T16:23:54.979Z,84.90
2017-12-24T16:26:22.502Z,84.70
2017-12-24T16:28:49.999Z,84.60
2017-12-24T16:31:18.985Z,85.00
2017-12-24T16:33:46.544Z,85.00
2017-12-24T16:36:14.012Z,85.00
2017-12-24T16:38:41.470Z,85.00
2017-12-24T16:41:09.011Z,85.20
2017-12-24T16:43:36.482Z,85.30
2017-12-24T16:46:03.943Z,85.30
2017-12-24T16:48:31.489Z,85.40
2017-12-24T16:50:59.763Z,85.80
2017-12-24T16:53:27.327Z,85.80
2017-12-24T16:55:54.888Z,85.50
2017-12-24T16:58:22.436Z,85.80
2017-12-24T17:00:50.019Z,86.00
2017-12-24T17:03:17.568Z,86.10
2017-12-24T17:05:45.030Z,86.90
2017-12-24T17:08:12.491Z,86.00
2017-12-24T17:10:40.774Z,86.70
2017-12-24T17:13:09.030Z,85.90
2017-12-24T17:15:36.492Z,85.90
2017-12-24T17:18:03.964Z,85.70
2017-12-24T17:20:32.211Z,85.80
2017-12-24T17:22:59.698Z,85.70
2017-12-24T17:25:28.056Z,86.10
2017-12-24T17:27:55.613Z,86.00
2017-12-24T17:30:23.082Z,86.00
2017-12-24T17:32:50.559Z,86.00
2017-12-24T17:35:18.784Z,86.40
2017-12-24T17:37:46.276Z,86.30
2017-12-24T17:40:13.829Z,85.90
2017-12-24T17:42:41.284Z,86.10
2017-12-24T17:45:08.748Z,85.50
2017-12-24T17:47:36.977Z,86.50
2017-12-24T17:50:04.456Z,86.40
2017-12-24T17:52:32.142Z,86.40
2017-12-24T17:55:00.409Z,86.10
2017-12-24T17:57:27.913Z,86.00
2017-12-24T17:59:55.473Z,86.40
2017-12-24T18:02:22.940Z,86.50
2017-12-24T18:04:50.429Z,86.30
2017-12-24T18:07:17.926Z,86.60
2017-12-24T18:09:45.439Z,86.70
2017-12-24T18:12:12.915Z,86.90
2017-12-24T18:14:41.140Z,86.60
2017-12-24T18:17:08.595Z,86.50
2017-12-24T18:19:36.051Z,86.70
2017-12-24T18:22:03.503Z,86.70
2017-12-24T18:24:30.995Z,86.80
2017-12-24T18:26:58.462Z,86.80
2017-12-24T18:29:25.975Z,87.00
2017-12-24T18:31:53.431Z,86.80
2017-12-24T18:34:20.891Z,87.00
2017-12-24T18:36:48.358Z,87.10
2017-12-24T18:39:15.860Z,87.30
2017-12-24T18:41:43.402Z,87.50
2017-12-24T18:44:10.962Z,87.90
2017-12-24T18:46:38.430Z,87.60
2017-12-24T18:49:05.951Z,87.90
2017-12-24T18:51:33.436Z,88.00
2017-12-24T18:54:01.656Z,88.10
2017-12-24T18:56:29.158Z,88.10
2017-12-24T18:58:56.645Z,88.40
2017-12-24T19:01:24.864Z,88.70
2017-12-24T19:03:52.347Z,88.60
2017-12-24T19:06:19.809Z,88.70
2017-12-24T19:08:47.364Z,88.80
2017-12-24T19:11:14.883Z,88.80
2017-12-24T19:13:42.381Z,88.60
2017-12-24T19:16:09.835Z,88.80
2017-12-24T19:18:37.296Z,88.50
2017-12-24T19:21:04.774Z,88.50
2017-12-24T19:23:33.003Z,88.90
2017-12-24T19:26:00.468Z,88.80
2017-12-24T19:28:27.932Z,88.80
2017-12-24T19:30:55.396Z,88.80
2017-12-24T19:33:22.913Z,89.00
2017-12-24T19:35:50.411Z,88.90
2017-12-24T19:38:17.864Z,89.00
2017-12-24T19:40:45.321Z,88.90
2017-12-24T19:43:13.045Z,89.00
2017-12-24T19:45:40.518Z,89.00
2017-12-24T19:48:08.003Z,88.90
2017-12-24T19:50:35.565Z,88.90
2017-12-24T19:53:03.016Z,88.90
2017-12-24T19:55:30.572Z,88.90
2017-12-24T19:57:58.132Z,89.00
2017-12-24T20:00:25.592Z,88.80
2017-12-24T20:02:53.048Z,88.80
2017-12-24T20:05:20.508Z,89.00
2017-12-24T20:07:48.063Z,88.80
2017-12-24T20:10:15.685Z,88.70
2017-12-24T20:12:43.146Z,89.30
2017-12-24T20:15:10.649Z,89.60
2017-12-24T20:17:38.088Z,89.50
2017-12-24T20:20:05.560Z,89.90
2017-12-24T20:22:33.024Z,90.00
2017-12-24T20:25:01.255Z,89.70
2017-12-24T20:27:28.799Z,89.70
2017-12-24T20:29:56.243Z,89.80
2017-12-24T20:32:23.705Z,90.00
2017-12-24T20:34:51.373Z,89.50
2017-12-24T20:37:18.875Z,89.70
2017-12-24T20:39:46.338Z,89.60
2017-12-24T20:42:13.804Z,89.50
2017-12-24T20:44:42.027Z,89.40
2017-12-24T20:47:09.530Z,89.30
2017-12-24T20:49:37.010Z,89.20
2017-12-24T20:52:04.485Z,89.30
2017-12-24T20:54:31.943Z,89.00
2017-12-24T20:56:59.414Z,88.90
2017-12-24T20:59:26.961Z,88.90
2017-12-24T21:01:54.459Z,88.90
2017-12-24T21:04:21.917Z,88.60
2017-12-24T21:06:49.481Z,88.80
2017-12-24T21:09:16.980Z,88.90
2017-12-24T21:11:44.440Z,89.00
2017-12-24T21:14:11.906Z,89.20
2017-12-24T21:16:39.373Z,89.20
2017-12-24T21:19:06.840Z,89.60
2017-12-24T21:21:34.292Z,89.60
2017-12-24T21:24:01.790Z,89.70
2017-12-24T21:26:29.250Z,90.00
2017-12-24T21:28:57.565Z,90.30
2017-12-24T21:31:25.023Z,90.20
2017-12-24T21:33:52.546Z,90.40
2017-12-24T21:36:20.814Z,90.40
2017-12-24T21:38:49.035Z,90.40
2017-12-24T21:41:16.505Z,90.30
2017-12-24T21:43:43.962Z,90.40
2017-12-24T21:46:11.434Z,90.50
2017-12-24T21:48:38.888Z,90.50
2017-12-24T21:51:06.358Z,90.40
2017-12-24T21:53:33.830Z,90.40
2017-12-24T21:56:02.052Z,90.20
2017-12-24T21:58:29.531Z,90.20
2017-12-24T22:00:57.013Z,90.00
2017-12-24T22:03:24.564Z,90.00
2017-12-24T22:05:52.044Z,90.00
2017-12-24T22:08:20.259Z,89.40
2017-12-24T22:10:47.744Z,89.30
2017-12-24T22:13:15.310Z,89.50
2017-12-24T22:15:42.782Z,89.50
2017-12-24T22:18:11.021Z,89.50
2017-12-24T22:20:38.492Z,89.20
2017-12-24T22:23:06.063Z,88.80
2017-12-24T22:25:33.520Z,89.00
2017-12-24T22:28:00.980Z,89.00
2017-12-24T22:30:28.440Z,88.90
2017-12-24T22:32:56.694Z,88.80
2017-12-24T22:35:24.251Z,88.60
2017-12-24T22:37:51.818Z,88.60
2017-12-24T22:40:19.281Z,88.80
2017-12-24T22:42:47.508Z,88.60
2017-12-24T22:45:14.971Z,88.50
2017-12-24T22:47:42.437Z,88.30
2017-12-24T22:50:09.909Z,88.30
2017-12-24T22:52:37.371Z,88.30
2017-12-24T22:55:04.826Z,88.10
2017-12-24T22:57:32.302Z,88.00
2017-12-24T23:00:00.540Z,87.30
2017-12-24T23:02:28.011Z,87.70
2017-12-24T23:04:55.576Z,87.70
2017-12-24T23:07:23.038Z,87.30
2017-12-24T23:09:50.506Z,87.60
2017-12-24T23:12:18.777Z,87.60
2017-12-24T23:14:46.319Z,87.50
2017-12-24T23:17:13.781Z,87.70
2017-12-24T23:19:41.243Z,87.20
2017-12-24T23:22:08.792Z,88.40
2017-12-24T23:24:36.244Z,87.40
2017-12-24T23:27:03.730Z,87.00
2017-12-24T23:29:31.259Z,87.20
2017-12-24T23:31:58.841Z,87.20
2017-12-24T23:34:26.317Z,86.90
2017-12-24T23:36:54.560Z,87.00
2017-12-24T23:39:22.806Z,87.00
2017-12-24T23:41:50.272Z,87.00
2017-12-24T23:44:17.731Z,87.00
2017-12-24T23:46:45.215Z,87.30
2017-12-24T23:49:12.690Z,87.10
2017-12-24T23:51:40.934Z,87.20
2017-12-24T23:54:08.500Z,87.00
2017-12-24T23:56:36.055Z,87.00
2017-12-24T23:59:03.622Z,86.90
